Time;durP1;ratioP1;P1;durP2;ratioP2;P2;SDS_P1;SDS_P2;PMS_P1;PMS_P2;Temp;Humidity;BMP_temperature;BMP_pressure;BME280_temperature;BME280_humidity;BME280_pressure;Samples;Min_cycle;Max_cycle;Signal;HPM_P1;HPM_P2
2022/06/06 00:02:01;;;;;;;11.65;8.57;;;;;;;22.05;64.31;100706.00;5024020;28;20548;-73
2022/06/06 00:04:28;;;;;;;10.25;8.50;;;;;;;22.14;64.58;100713.91;5025821;28;20077;-73
2022/06/06 00:06:58;;;;;;;9.75;8.13;;;;;;;22.56;63.13;100707.88;5026772;28;20150;-73
2022/06/06 00:09:25;;;;;;;10.82;8.40;;;;;;;22.56;63.37;100707.88;5022075;28;20053;-73
2022/06/06 00:11:52;;;;;;;9.00;8.02;;;;;;;22.72;62.44;100713.38;5024237;28;20037;-73
2022/06/06 00:14:19;;;;;;;13.10;7.72;;;;;;;22.67;63.21;100721.00;5025157;28;20100;-72
2022/06/06 00:16:46;;;;;;;8.82;7.90;;;;;;;22.72;62.91;100711.56;5024443;28;20056;-72
2022/06/06 00:19:13;;;;;;;9.02;8.13;;;;;;;22.49;63.88;100723.72;5024389;28;20045;-72
2022/06/06 00:21:41;;;;;;;7.40;6.60;;;;;;;22.24;64.63;100733.38;5025927;28;20542;-72
2022/06/06 00:24:10;;;;;;;14.88;6.35;;;;;;;22.03;65.46;100735.50;5025416;28;20558;-73
2022/06/06 00:26:39;;;;;;;7.55;5.28;;;;;;;21.94;64.36;100731.09;5025518;28;20168;-72
2022/06/06 00:29:06;;;;;;;5.75;4.93;;;;;;;21.96;64.46;100737.13;5025735;28;20042;-72
2022/06/06 00:37:05;;;;;;;5.80;4.32;;;;;;;21.81;63.65;100743.94;5024186;28;20092;-73
2022/06/06 00:39:33;;;;;;;4.82;3.97;;;;;;;22.05;63.73;100744.22;5024432;28;20045;-73
2022/06/06 00:42:00;;;;;;;4.95;4.18;;;;;;;22.21;63.30;100752.38;5027301;28;20061;-73
2022/06/06 00:44:31;;;;;;;4.88;3.85;;;;;;;22.11;62.59;100753.44;5039881;28;20049;-73
2022/06/06 00:47:06;;;;;;;4.57;3.85;;;;;;;21.85;63.60;100746.16;5045573;28;20048;-73
2022/06/06 00:49:37;;;;;;;4.05;3.65;;;;;;;21.72;63.95;100750.19;5030779;28;20057;-73
2022/06/06 00:52:07;;;;;;;5.30;4.00;;;;;;;22.14;62.53;100755.81;5018223;28;20059;-73
2022/06/06 00:54:35;;;;;;;5.38;3.90;;;;;;;22.31;61.86;100752.28;5024651;28;20493;-73
2022/06/06 00:57:09;;;;;;;5.10;3.78;;;;;;;22.47;61.56;100743.59;5024435;28;20494;-73
2022/06/06 00:59:38;;;;;;;4.10;3.53;;;;;;;22.69;60.24;100735.06;5025662;28;20657;-69
2022/06/06 01:02:09;;;;;;;7.07;4.03;;;;;;;22.98;59.96;100732.91;5034102;28;20646;-70
2022/06/06 01:04:36;;;;;;;5.63;4.00;;;;;;;23.17;58.88;100738.00;5022681;28;20103;-70
2022/06/06 01:07:04;;;;;;;5.85;3.75;;;;;;;23.18;58.91;100736.19;5022227;28;20057;-70
2022/06/06 01:09:30;;;;;;;5.25;3.90;;;;;;;23.08;58.87;100738.13;5023748;28;20042;-70
2022/06/06 01:12:01;;;;;;;5.32;3.55;;;;;;;22.70;60.21;100742.09;5024278;28;20049;-71
2022/06/06 01:14:32;;;;;;;7.47;3.45;;;;;;;22.65;60.26;100736.34;5023832;28;20049;-71
2022/06/06 01:17:03;;;;;;;4.85;3.70;;;;;;;22.58;60.81;100749.50;5025782;28;20099;-71
2022/06/06 01:20:03;;;;;;;5.70;3.35;;;;;;;22.73;59.96;100733.75;5024328;28;20042;-71
2022/06/06 01:23:14;;;;;;;3.92;3.53;;;;;;;22.70;60.26;100739.41;5024729;28;20103;-71
2022/06/06 01:25:59;;;;;;;4.35;3.88;;;;;;;22.50;61.34;100756.63;5024932;28;20057;-70
2022/06/06 01:28:43;;;;;;;8.38;4.18;;;;;;;22.64;61.21;100746.22;5025588;28;20053;-70
2022/06/06 01:31:18;;;;;;;5.70;4.10;;;;;;;22.80;60.62;100746.34;5021782;28;20654;-70
2022/06/06 01:33:53;;;;;;;6.47;3.97;;;;;;;22.54;61.61;100755.31;5039132;28;20452;-69
2022/06/06 01:36:21;;;;;;;4.50;4.05;;;;;;;22.36;62.22;100760.66;5029905;28;20049;-70
2022/06/06 01:38:48;;;;;;;4.55;4.07;;;;;;;21.79;64.26;100764.63;5023485;28;20636;-70
2022/06/06 01:41:23;;;;;;;9.50;4.10;;;;;;;21.75;64.59;100760.56;5028196;28;20449;-70
2022/06/06 01:43:56;;;;;;;6.97;4.15;;;;;;;22.07;63.30;100763.59;5027968;28;20042;-70
2022/06/06 01:46:27;;;;;;;5.13;4.22;;;;;;;21.99;63.59;100750.16;5033587;28;20044;-70
2022/06/06 01:48:56;;;;;;;4.75;4.00;;;;;;;22.14;63.31;100755.81;5038163;28;20049;-70
2022/06/06 01:51:27;;;;;;;6.43;4.28;;;;;;;22.16;62.78;100751.16;5027358;28;20099;-70
2022/06/06 01:53:53;;;;;;;5.65;4.50;;;;;;;22.24;62.63;100746.75;5008243;28;20049;-70
2022/06/06 01:56:24;;;;;;;4.25;3.67;;;;;;;22.02;63.06;100746.38;5009275;28;20054;-70
2022/06/06 01:58:52;;;;;;;5.57;3.78;;;;;;;21.80;63.55;100753.78;5009126;28;20120;-70
2022/06/06 02:01:19;;;;;;;5.18;4.00;;;;;;;21.57;63.72;100762.38;5007768;28;20050;-70
2022/06/06 02:03:45;;;;;;;4.38;3.63;;;;;;;21.48;63.63;100758.75;5046322;28;20049;-70
2022/06/06 02:06:13;;;;;;;5.18;3.58;;;;;;;21.30;63.96;100761.38;5048966;28;20045;-70
2022/06/06 02:08:40;;;;;;;4.75;3.15;;;;;;;21.35;62.86;100771.59;5039220;28;20142;-70
2022/06/06 02:11:06;;;;;;;9.25;3.60;;;;;;;21.24;63.02;100777.13;5026711;28;20091;-70
2022/06/06 02:13:33;;;;;;;5.15;3.10;;;;;;;21.36;62.26;100774.09;5028445;28;20429;-70
2022/06/06 02:16:02;;;;;;;3.90;3.00;;;;;;;21.42;62.41;100774.50;5028000;28;20103;-70
2022/06/06 02:18:29;;;;;;;4.22;3.25;;;;;;;21.18;63.03;100770.53;5026687;28;20091;-70
2022/06/06 02:20:55;;;;;;;4.40;2.97;;;;;;;20.94;62.95;100788.84;5027664;28;20050;-70
2022/06/06 02:23:22;;;;;;;4.47;3.17;;;;;;;20.86;63.20;100784.22;5027146;28;20050;-70
2022/06/06 02:25:49;;;;;;;3.63;2.97;;;;;;;20.74;63.43;100788.03;5035125;28;20768;-70
2022/06/06 02:28:15;;;;;;;4.70;3.60;;;;;;;20.72;63.42;100794.50;5048004;28;20053;-70
2022/06/06 02:30:42;;;;;;;5.78;3.00;;;;;;;20.91;62.81;100796.28;5046806;28;20052;-70
2022/06/06 02:33:10;;;;;;;4.05;2.75;;;;;;;20.31;63.61;100798.31;5046402;28;20041;-70
2022/06/06 02:35:39;;;;;;;4.47;3.08;;;;;;;20.28;63.91;100791.47;5047677;28;20074;-70
2022/06/06 02:38:06;;;;;;;3.83;2.90;;;;;;;20.40;63.31;100790.31;5045592;28;20043;-70
2022/06/06 02:40:32;;;;;;;3.90;2.95;;;;;;;20.67;62.14;100794.06;5026093;28;20736;-70
2022/06/06 02:42:58;;;;;;;3.67;2.80;;;;;;;20.43;62.63;100791.03;5027965;28;20069;-70
2022/06/06 02:45:25;;;;;;;5.25;3.08;;;;;;;20.54;61.93;100788.22;5026539;28;20103;-70
2022/06/06 02:47:55;;;;;;;4.15;2.70;;;;;;;20.66;61.31;100801.22;5025268;28;20072;-70
2022/06/06 02:50:29;;;;;;;6.07;2.75;;;;;;;20.57;61.27;100803.91;5026652;28;20048;-70
2022/06/06 02:52:55;;;;;;;4.05;2.88;;;;;;;20.69;61.13;100802.78;5028123;28;20071;-70
2022/06/06 02:55:22;;;;;;;3.60;2.92;;;;;;;20.70;61.11;100799.13;5026059;28;20049;-70
2022/06/06 02:57:51;;;;;;;3.78;2.83;;;;;;;20.88;60.48;100797.41;5026445;28;20046;-70
2022/06/06 03:00:20;;;;;;;4.15;2.88;;;;;;;20.92;60.26;100812.13;5027721;28;20464;-70
2022/06/06 03:02:47;;;;;;;3.47;2.60;;;;;;;20.80;60.65;100806.09;5026266;28;20085;-70
2022/06/06 03:05:14;;;;;;;5.47;3.03;;;;;;;20.57;61.40;100814.56;5026363;28;20068;-70
2022/06/06 03:07:58;;;;;;;4.18;3.00;;;;;;;20.89;60.65;100820.41;5027716;28;20049;-70
2022/06/06 03:10:35;;;;;;;6.57;2.80;;;;;;;20.98;59.96;100824.91;5022776;28;20701;-70
2022/06/06 03:13:21;;;;;;;3.70;2.55;;;;;;;20.96;60.27;100826.00;5018622;28;20049;-70
2022/06/06 03:21:52;;;;;;;3.40;2.88;;;;;;;21.20;59.31;100819.25;5017780;28;20068;-70
2022/06/06 03:24:32;;;;;;;4.05;2.80;;;;;;;21.38;58.73;100826.47;5031289;28;20056;-70
2022/06/06 03:27:13;;;;;;;3.95;2.60;;;;;;;21.31;58.84;100837.75;5047160;28;20633;-70
2022/06/06 03:29:53;;;;;;;4.23;2.50;;;;;;;21.12;59.45;100835.13;5037309;28;20045;-70
2022/06/06 03:32:27;;;;;;;3.85;3.03;;;;;;;21.54;57.69;100848.03;5027959;28;20072;-70
2022/06/06 03:35:04;;;;;;;3.58;2.70;;;;;;;21.27;58.95;100839.00;5007233;28;20041;-70
2022/06/06 03:37:37;;;;;;;4.53;2.95;;;;;;;21.50;58.10;100838.66;5008343;28;20104;-70
2022/06/06 03:40:12;;;;;;;3.33;2.75;;;;;;;21.46;58.46;100821.25;5007672;28;20112;-70
2022/06/06 03:42:49;;;;;;;3.53;2.63;;;;;;;21.07;59.83;100833.84;5043692;28;20045;-70
2022/06/06 03:45:22;;;;;;;3.63;2.90;;;;;;;21.32;59.36;100849.25;5032961;28;20045;-70
2022/06/06 03:48:00;;;;;;;3.28;2.80;;;;;;;21.62;58.18;100846.31;5025254;28;20056;-70
2022/06/06 03:50:37;;;;;;;3.60;3.00;;;;;;;21.42;58.78;100854.53;5025899;28;20119;-70
2022/06/06 03:53:09;;;;;;;4.43;2.92;;;;;;;21.41;58.73;100848.38;5024569;28;20050;-70
2022/06/06 03:55:52;;;;;;;4.40;2.72;;;;;;;21.44;59.06;100856.06;5025481;28;20054;-70
2022/06/06 03:58:21;;;;;;;4.68;3.10;;;;;;;21.39;59.82;100854.84;5025283;28;20119;-70
2022/06/06 04:00:47;;;;;;;5.97;3.38;;;;;;;21.35;59.72;100855.13;5024774;28;20045;-71
2022/06/06 04:03:15;;;;;;;6.10;3.47;;;;;;;20.98;60.76;100856.03;5026247;28;20049;-71
2022/06/06 04:05:42;;;;;;;4.25;3.20;;;;;;;20.86;61.58;100860.69;5026025;28;20418;-71
2022/06/06 04:08:10;;;;;;;7.32;3.05;;;;;;;21.02;61.24;100863.63;5024598;28;20037;-70
2022/06/06 04:10:50;;;;;;;3.22;2.92;;;;;;;20.78;61.84;100871.19;5025339;28;20045;-70
2022/06/06 04:13:30;;;;;;;4.47;3.00;;;;;;;20.06;64.28;100863.56;5026928;28;20072;-70
2022/06/06 04:16:09;;;;;;;6.00;3.50;;;;;;;19.46;67.21;100868.94;5025513;28;20045;-70
2022/06/06 04:18:46;;;;;;;4.75;3.30;;;;;;;19.41;67.58;100870.19;5038538;28;20049;-70
2022/06/06 04:21:32;;;;;;;4.75;3.35;;;;;;;19.24;68.73;100869.91;5025405;28;20050;-70
2022/06/06 04:24:18;;;;;;;4.57;3.67;;;;;;;19.21;68.87;100875.50;5011146;28;20087;-70
2022/06/06 04:26:57;;;;;;;4.47;3.30;;;;;;;19.74;66.86;100884.16;5024026;28;20111;-70
2022/06/06 04:29:33;;;;;;;6.10;3.83;;;;;;;19.82;66.71;100889.66;5024412;28;20045;-70
2022/06/06 04:32:09;;;;;;;5.40;4.28;;;;;;;20.05;66.05;100888.50;5024174;28;20038;-70
2022/06/06 04:34:44;;;;;;;4.50;4.07;;;;;;;20.01;67.00;100894.22;5026146;28;20081;-70
2022/06/06 04:37:19;;;;;;;4.38;3.97;;;;;;;19.64;68.30;100884.16;5024509;28;20449;-70
2022/06/06 04:39:52;;;;;;;4.75;3.72;;;;;;;19.68;68.19;100882.91;5025695;28;20041;-70
2022/06/06 04:42:28;;;;;;;5.43;4.40;;;;;;;19.02;70.81;100886.00;5024205;28;20041;-70
2022/06/06 04:45:03;;;;;;;5.53;3.90;;;;;;;18.71;71.40;100901.00;5025876;28;20099;-70
2022/06/06 04:47:35;;;;;;;6.45;3.90;;;;;;;18.87;71.43;100888.16;5034410;28;20048;-69
2022/06/06 04:50:04;;;;;;;6.63;3.70;;;;;;;19.39;69.12;100888.06;5025565;28;20041;-71
2022/06/06 04:52:33;;;;;;;5.47;3.05;;;;;;;19.79;67.95;100889.94;5008160;28;20050;-70
2022/06/06 04:55:02;;;;;;;5.75;3.40;;;;;;;19.80;67.44;100888.97;5024837;28;20476;-70
2022/06/06 04:57:30;;;;;;;3.67;3.15;;;;;;;20.07;66.53;100891.84;5027040;28;20049;-70
2022/06/06 04:59:59;;;;;;;4.65;3.38;;;;;;;20.02;66.62;100893.25;5024748;28;20037;-70
2022/06/06 05:02:26;;;;;;;5.25;3.40;;;;;;;19.62;68.36;100901.22;5024144;28;20065;-70
2022/06/06 05:04:52;;;;;;;3.78;3.38;;;;;;;19.77;67.66;100900.72;5024820;28;20095;-70
2022/06/06 05:07:38;;;;;;;5.85;3.33;;;;;;;19.97;67.08;100901.63;5024273;28;20042;-70
2022/06/06 05:10:27;;;;;;;4.45;3.15;;;;;;;20.00;67.12;100901.34;5024082;28;20127;-70
2022/06/06 05:13:22;;;;;;;6.43;3.08;;;;;;;20.35;66.26;100901.75;5023562;28;20098;-70
2022/06/06 05:16:10;;;;;;;4.05;3.65;;;;;;;20.76;63.86;100903.34;5022877;28;20596;-70
2022/06/06 05:18:54;;;;;;;4.00;3.30;;;;;;;20.62;65.18;100900.25;5024278;28;20076;-70
2022/06/06 05:21:41;;;;;;;6.75;3.40;;;;;;;20.37;65.86;100904.28;5022799;28;20041;-70
2022/06/06 05:24:25;;;;;;;4.47;3.63;;;;;;;21.05;64.50;100894.47;5018209;28;20054;-70
2022/06/06 05:27:23;;;;;;;5.35;3.47;;;;;;;21.35;63.15;100903.16;5017314;28;20049;-70
2022/06/06 05:30:11;;;;;;;4.68;3.45;;;;;;;21.30;63.71;100905.41;5022979;28;20053;-70
2022/06/06 05:32:53;;;;;;;4.85;3.50;;;;;;;21.77;62.02;100910.72;5024801;28;20109;-70
2022/06/06 05:35:33;;;;;;;4.60;3.28;;;;;;;21.34;62.79;100912.13;5025363;28;20049;-70
2022/06/06 05:38:10;;;;;;;3.97;3.20;;;;;;;21.60;61.76;100917.66;5021871;28;20137;-69
2022/06/06 05:40:39;;;;;;;4.25;3.20;;;;;;;21.06;62.25;100914.81;5022952;28;20057;-70
2022/06/06 05:43:25;;;;;;;3.65;2.92;;;;;;;21.83;60.92;100918.16;5025115;28;20091;-70
2022/06/06 05:46:05;;;;;;;4.40;3.15;;;;;;;21.59;60.87;100925.81;5023473;28;20041;-70
2022/06/06 05:48:46;;;;;;;6.07;3.00;;;;;;;22.03;59.69;100927.75;5022760;28;20556;-70
2022/06/06 05:51:25;;;;;;;5.28;3.00;;;;;;;22.37;58.39;100928.00;5018962;28;20768;-70
2022/06/06 05:54:08;;;;;;;7.68;3.13;;;;;;;22.26;58.22;100931.72;5022482;28;20041;-70
2022/06/06 05:56:55;;;;;;;4.57;3.17;;;;;;;22.08;59.97;100938.00;5022647;28;20238;-69
2022/06/06 05:59:47;;;;;;;5.70;3.17;;;;;;;21.93;59.42;100940.31;5023356;28;20472;-69
2022/06/06 06:02:42;;;;;;;5.37;3.03;;;;;;;22.32;58.64;100935.59;5017362;28;20041;-70
2022/06/06 06:05:16;;;;;;;3.92;2.90;;;;;;;22.44;58.01;100939.75;5025070;28;20295;-69
2022/06/06 06:07:53;;;;;;;4.03;3.05;;;;;;;22.84;57.37;100942.03;5024199;28;20107;-70
2022/06/06 06:10:25;;;;;;;4.53;2.90;;;;;;;22.42;58.54;100951.59;5024431;28;20045;-70
2022/06/06 06:13:10;;;;;;;3.95;2.67;;;;;;;22.29;59.16;100951.94;5023264;28;20096;-70
2022/06/06 06:15:39;;;;;;;5.72;3.00;;;;;;;23.34;56.29;100954.81;5024981;28;20110;-70
2022/06/06 06:18:17;;;;;;;3.72;2.80;;;;;;;22.53;59.08;100944.22;5022400;28;20046;-70
2022/06/06 06:20:48;;;;;;;4.22;2.90;;;;;;;23.75;54.95;100938.06;5023421;28;20095;-70
2022/06/06 06:23:19;;;;;;;5.50;2.80;;;;;;;24.24;53.84;100937.28;5022809;28;20503;-70
2022/06/06 06:25:49;;;;;;;4.13;2.65;;;;;;;24.48;54.53;100941.03;5026724;28;20057;-69
2022/06/06 06:28:16;;;;;;;4.60;3.08;;;;;;;24.39;53.03;100952.75;5028042;28;20470;-69
2022/06/06 06:30:59;;;;;;;5.80;3.10;;;;;;;23.57;55.43;100954.19;5024552;28;20762;-69
2022/06/06 06:33:40;;;;;;;4.55;2.97;;;;;;;24.07;54.30;100950.75;5009704;28;20046;-69
2022/06/06 06:36:21;;;;;;;5.28;3.22;;;;;;;23.98;53.91;100944.50;5025388;28;20041;-69
2022/06/06 06:39:01;;;;;;;4.00;2.60;;;;;;;23.74;54.68;100957.78;5028452;28;20567;-69
2022/06/06 06:41:38;;;;;;;6.93;3.05;;;;;;;23.60;55.86;100961.91;5026887;28;20033;-69
2022/06/06 06:44:09;;;;;;;5.18;2.97;;;;;;;23.48;57.22;100959.63;5029463;28;20154;-69
2022/06/06 06:46:41;;;;;;;4.00;2.72;;;;;;;23.60;56.91;100955.72;5027262;28;20053;-69
2022/06/06 06:49:21;;;;;;;5.00;3.05;;;;;;;23.51;56.43;100957.47;5026476;28;20126;-68
2022/06/06 06:51:57;;;;;;;4.57;2.97;;;;;;;23.73;55.58;100954.28;5026690;28;20038;-70
2022/06/06 06:54:33;;;;;;;3.83;2.92;;;;;;;23.47;55.38;100960.63;5026669;28;20045;-67
2022/06/06 06:57:11;;;;;;;3.83;2.85;;;;;;;23.46;55.10;100969.66;5028274;28;20095;-66
2022/06/06 06:59:56;;;;;;;5.03;3.08;;;;;;;23.70;54.07;100957.28;5027857;28;20046;-67
2022/06/06 07:08:35;;;;;;;5.45;3.10;;;;;;;22.72;56.31;100956.63;5029853;28;20056;-67
2022/06/06 07:11:14;;;;;;;3.72;3.05;;;;;;;23.29;55.43;100960.63;5041976;28;20045;-67
2022/06/06 07:13:51;;;;;;;4.95;2.90;;;;;;;23.29;55.09;100964.16;5040679;28;20878;-67
2022/06/06 07:16:21;;;;;;;7.60;3.55;;;;;;;23.01;56.00;100969.78;5024118;28;20042;-66
2022/06/06 07:18:53;;;;;;;6.53;3.40;;;;;;;23.11;56.15;100973.19;5025179;28;20072;-66
2022/06/06 07:21:23;;;;;;;5.78;3.92;;;;;;;23.19;55.12;100963.41;5021116;28;20064;-66
2022/06/06 07:23:53;;;;;;;7.07;4.10;;;;;;;23.58;55.00;100958.53;5026563;28;20046;-67
2022/06/06 07:26:19;;;;;;;5.20;3.28;;;;;;;24.20;52.56;100957.38;5029444;28;20046;-66
2022/06/06 07:28:46;;;;;;;4.20;3.20;;;;;;;23.87;53.72;100952.03;5035481;28;20057;-67
2022/06/06 07:31:23;;;;;;;4.55;3.22;;;;;;;25.22;51.59;100948.19;5028597;28;20464;-66
2022/06/06 07:34:04;;;;;;;3.88;3.05;;;;;;;25.47;50.17;100947.16;5032376;28;20402;-66
2022/06/06 07:36:45;;;;;;;5.97;3.45;;;;;;;25.32;49.52;100952.38;5025468;28;20065;-67
2022/06/06 07:39:24;;;;;;;5.90;3.50;;;;;;;24.62;50.75;100948.44;5025115;28;20041;-67
2022/06/06 07:42:04;;;;;;;4.60;3.08;;;;;;;25.25;49.69;100950.53;5024346;28;20095;-67
2022/06/06 07:44:44;;;;;;;5.53;3.58;;;;;;;24.93;49.87;100946.84;5034436;28;20091;-67
2022/06/06 07:47:19;;;;;;;4.90;3.63;;;;;;;25.77;48.90;100946.44;5043685;28;20051;-67
2022/06/06 07:49:52;;;;;;;4.18;3.60;;;;;;;26.42;46.13;100940.84;5024909;28;20107;-66
2022/06/06 07:52:29;;;;;;;5.68;3.70;;;;;;;26.77;45.16;100942.94;5028694;28;20095;-66
2022/06/06 07:55:03;;;;;;;4.90;3.40;;;;;;;26.65;45.70;100944.38;5019590;28;20065;-66
2022/06/06 07:57:38;;;;;;;5.22;3.00;;;;;;;26.75;45.87;100945.00;5038150;28;20044;-66
2022/06/06 08:00:09;;;;;;;4.90;3.25;;;;;;;26.57;46.66;100944.41;5042922;28;20048;-66
2022/06/06 08:02:50;;;;;;;3.97;2.90;;;;;;;25.75;48.00;100947.63;5027511;28;20658;-66
2022/06/06 08:05:29;;;;;;;5.63;3.00;;;;;;;26.48;47.78;100945.50;5028249;28;20459;-66
2022/06/06 08:08:07;;;;;;;5.25;2.72;;;;;;;25.68;48.55;100953.69;5034036;28;20931;-67
2022/06/06 08:10:40;;;;;;;4.53;2.67;;;;;;;25.73;49.09;100942.44;5023838;28;20042;-67
2022/06/06 08:13:26;;;;;;;4.95;3.20;;;;;;;25.92;48.18;100952.78;5029760;28;20056;-67
2022/06/06 08:16:07;;;;;;;4.25;2.85;;;;;;;25.92;47.59;100951.94;5033688;28;20091;-67
2022/06/06 08:18:50;;;;;;;5.93;3.10;;;;;;;26.05;48.19;100957.63;5026726;28;20049;-67
2022/06/06 08:21:22;;;;;;;6.20;3.30;;;;;;;26.19;47.77;100950.69;5024278;28;20049;-68
2022/06/06 08:23:53;;;;;;;5.57;3.53;;;;;;;25.95;47.97;100962.34;5017028;28;20041;-67
2022/06/06 08:26:21;;;;;;;5.50;3.05;;;;;;;25.91;48.66;100956.47;5026106;28;20045;-67
2022/06/06 08:28:50;;;;;;;9.48;3.95;;;;;;;26.16;49.29;100962.59;5024746;28;20053;-67
2022/06/06 08:31:17;;;;;;;6.93;3.67;;;;;;;26.04;49.91;100962.16;5037774;28;20178;-67
2022/06/06 08:33:43;;;;;;;6.78;4.15;;;;;;;26.46;51.65;100953.72;5026695;28;20104;-67
2022/06/06 08:36:25;;;;;;;7.45;4.15;;;;;;;27.25;49.35;100951.66;5034250;28;20040;-67
2022/06/06 08:39:07;;;;;;;4.55;3.85;;;;;;;27.89;46.93;100937.56;5045369;28;20288;-67
2022/06/06 08:41:48;;;;;;;;;;;;;;;28.39;44.49;100941.31;5045971;28;20041;-67
2022/06/06 08:44:27;;;;;;;4.20;3.65;;;;;;;29.33;44.60;100945.63;5015531;28;19931;-66
2022/06/06 08:47:02;;;;;;;6.75;3.78;;;;;;;29.78;40.24;100947.81;5025288;28;20049;-67
2022/06/06 08:53:12;;;;;;;5.35;3.90;;;;;;;29.80;40.25;100947.59;5025265;28;20067;-67
2022/06/06 08:55:57;;;;;;;5.68;3.90;;;;;;;29.16;39.45;100963.94;5003165;28;20084;-67
2022/06/06 08:58:51;;;;;;;4.88;3.88;;;;;;;28.98;39.88;100947.38;5030365;28;20122;-67
2022/06/06 09:01:33;;;;;;;9.00;3.78;;;;;;;27.77;40.90;100959.75;5030024;28;20047;-67
2022/06/06 09:04:21;;;;;;;6.38;3.90;;;;;;;27.09;45.98;100950.78;5030724;28;20049;-67
2022/06/06 09:07:20;;;;;;;9.27;4.05;;;;;;;27.65;43.54;100932.44;5025548;28;20500;-67
2022/06/06 09:10:19;;;;;;;5.25;3.67;;;;;;;29.16;44.96;100936.09;5023322;28;20115;-67
2022/06/06 09:13:28;;;;;;;3.40;3.10;;;;;;;29.45;38.99;100933.25;5028476;28;20041;-66
2022/06/06 09:16:19;;;;;;;7.22;3.60;;;;;;;29.55;39.20;100931.03;5044012;28;20068;-66
2022/06/06 09:19:22;;;;;;;6.03;3.47;;;;;;;28.80;39.21;100941.59;5027899;28;20099;-66
2022/06/06 09:22:17;;;;;;;8.27;4.18;;;;;;;27.42;41.71;100939.75;5022861;28;20046;-66
2022/06/06 09:25:03;;;;;;;5.32;3.72;;;;;;;27.76;43.01;100948.16;5024088;28;20065;-66
2022/06/06 09:28:11;;;;;;;6.80;4.15;;;;;;;28.39;41.09;100941.31;5023227;28;20050;-66
2022/06/06 09:31:14;;;;;;;9.35;4.30;;;;;;;29.12;39.72;100940.25;5000334;28;20497;-66
2022/06/06 09:34:17;;;;;;;6.93;3.88;;;;;;;28.27;39.67;100943.66;5018901;28;20450;-66
2022/06/06 09:37:03;;;;;;;6.13;4.20;;;;;;;27.80;41.40;100956.69;5024019;28;20471;-66
2022/06/06 09:39:36;;;;;;;7.20;3.72;;;;;;;27.64;41.18;100943.41;5030174;28;20050;-66
2022/06/06 09:42:15;;;;;;;5.68;3.92;;;;;;;27.61;43.20;100950.00;5024436;28;20068;-66
2022/06/06 09:45:13;;;;;;;6.93;4.43;;;;;;;27.90;44.70;100936.53;5002610;28;20453;-66
2022/06/06 09:48:00;;;;;;;6.50;4.20;;;;;;;27.91;41.60;100943.59;5018370;28;20038;-66
2022/06/06 09:50:55;;;;;;;6.47;4.57;;;;;;;27.80;40.94;100940.53;5023744;28;20100;-66
2022/06/06 10:00:11;;;;;;;7.80;3.78;;;;;;;29.49;38.27;100938.06;5025278;28;20060;-66
2022/06/06 10:03:12;;;;;;;5.00;3.80;;;;;;;29.39;36.96;100942.13;5026978;28;20053;-66
2022/06/06 10:06:16;;;;;;;5.17;3.83;;;;;;;29.35;36.74;100928.19;5028076;28;20654;-66
2022/06/06 10:09:23;;;;;;;5.43;4.13;;;;;;;28.17;38.15;100931.50;5027269;28;20156;-66
2022/06/06 10:12:16;;;;;;;4.95;3.63;;;;;;;28.05;38.20;100926.56;5028585;28;20046;-66
2022/06/06 10:14:53;;;;;;;5.68;3.15;;;;;;;28.15;37.01;100936.28;5027887;28;20045;-66
2022/06/06 10:17:34;;;;;;;5.38;3.42;;;;;;;28.63;37.68;100930.19;5026839;28;20042;-66
2022/06/06 10:20:16;;;;;;;4.90;3.60;;;;;;;28.53;38.58;100926.94;5026524;28;20421;-66
2022/06/06 10:23:00;;;;;;;;;;;;;;;29.17;36.30;100918.88;5023558;28;20498;-66
2022/06/06 10:25:44;;;;;;;6.18;3.33;;;;;;;29.60;36.73;100906.13;5037434;28;19972;-66
2022/06/06 10:28:25;;;;;;;5.13;3.50;;;;;;;29.31;35.94;100904.47;5008541;28;20111;-66
2022/06/06 10:31:05;;;;;;;5.88;3.55;;;;;;;30.09;35.66;100906.81;5014533;28;20131;-66
2022/06/06 10:34:04;;;;;;;5.63;4.18;;;;;;;29.31;35.89;100908.00;5016613;28;20504;-66
2022/06/06 10:36:58;;;;;;;5.00;3.10;;;;;;;29.56;34.66;100910.25;5027995;28;20042;-66
2022/06/06 10:39:50;;;;;;;5.63;3.05;;;;;;;28.86;36.09;100906.56;5025478;28;20053;-67
2022/06/06 10:42:37;;;;;;;6.82;3.08;;;;;;;29.13;36.51;100906.78;5024788;28;20457;-66
2022/06/06 10:45:15;;;;;;;4.93;2.50;;;;;;;28.39;34.57;100917.03;5026546;28;20107;-66
2022/06/06 10:48:08;;;;;;;4.93;2.67;;;;;;;27.86;33.74;100905.56;5025978;28;20494;-66
2022/06/06 10:51:36;;;;;;;;;;;;;;;27.60;34.96;100924.09;5026418;28;20438;-66
2022/06/06 10:53:44;;;;;;;3.38;2.22;;;;;;;27.50;35.20;100915.44;5025986;28;19937;-66
2022/06/06 10:56:49;;;;;;;3.72;2.10;;;;;;;27.10;35.09;100919.34;5026099;28;20115;-66
2022/06/06 10:59:44;;;;;;;4.82;2.53;;;;;;;26.70;35.68;100912.41;5025665;28;20095;-66
2022/06/06 11:02:34;;;;;;;4.88;2.25;;;;;;;26.89;36.66;100916.50;5026037;28;20038;-66
2022/06/06 11:05:34;;;;;;;5.25;2.35;;;;;;;26.55;37.08;100914.19;5025226;28;20053;-66
2022/06/06 11:08:31;;;;;;;5.82;2.53;;;;;;;26.45;36.97;100908.22;5005004;28;20488;-66
2022/06/06 11:11:20;;;;;;;6.57;2.40;;;;;;;26.24;37.50;100921.44;5007884;28;20049;-66
2022/06/06 11:13:57;;;;;;;3.08;2.10;;;;;;;26.26;37.76;100922.94;5031380;28;20040;-66
2022/06/06 11:17:01;;;;;;;5.13;2.30;;;;;;;26.34;38.00;100911.31;5031759;28;20053;-66
2022/06/06 11:20:15;;;;;;;3.63;2.25;;;;;;;26.42;37.13;100917.44;4973021;28;20096;-66
2022/06/06 11:22:43;;;;;;;3.30;2.10;;;;;;;26.74;36.32;100919.09;4995444;28;20529;-66
2022/06/06 11:25:13;;;;;;;4.40;2.50;;;;;;;26.51;36.22;100915.56;5001817;28;20057;-66
2022/06/06 11:28:07;;;;;;;4.95;2.47;;;;;;;26.34;38.66;100914.84;4996724;28;20512;-66
2022/06/06 11:31:04;;;;;;;3.20;2.20;;;;;;;26.55;37.93;100915.03;4991050;28;20066;-67
2022/06/06 11:33:56;;;;;;;3.17;2.40;;;;;;;26.14;37.79;100913.56;4994902;28;20295;-66
2022/06/06 11:36:48;;;;;;;3.92;2.38;;;;;;;26.01;38.40;100906.06;5019511;28;20049;-66
2022/06/06 11:39:37;;;;;;;3.42;2.30;;;;;;;25.84;38.40;100908.97;5016801;28;20042;-67
2022/06/06 11:42:27;;;;;;;4.57;2.10;;;;;;;25.83;38.90;100896.56;5009910;28;20046;-66
2022/06/06 11:45:16;;;;;;;4.78;2.20;;;;;;;26.06;37.87;100887.56;5006207;28;20042;-66
2022/06/06 11:47:52;;;;;;;4.05;2.17;;;;;;;26.04;38.52;100897.66;5024840;28;20051;-64
2022/06/06 11:51:02;;;;;;;3.80;2.20;;;;;;;26.83;38.17;100890.31;5005315;28;20038;-64
2022/06/06 11:54:05;;;;;;;7.22;2.35;;;;;;;27.14;38.73;100893.72;5007852;28;20050;-64
2022/06/06 11:57:01;;;;;;;5.30;2.30;;;;;;;27.73;35.69;100891.94;5018327;28;20053;-64
2022/06/06 12:00:03;;;;;;;5.25;1.98;;;;;;;28.51;32.68;100883.16;5005682;28;20057;-65
2022/06/06 12:02:53;;;;;;;3.67;2.50;;;;;;;28.41;33.64;100888.03;5015125;28;20107;-64
2022/06/06 12:06:08;;;;;;;5.45;2.17;;;;;;;27.95;32.93;100882.06;5030473;28;20405;-64
2022/06/06 12:08:49;;;;;;;3.90;1.95;;;;;;;27.63;34.51;100877.94;4985817;28;20099;-66
2022/06/06 12:11:46;;;;;;;3.33;1.92;;;;;;;28.43;34.40;100873.31;5023414;28;20096;-66
2022/06/06 12:14:43;;;;;;;4.47;1.92;;;;;;;29.35;31.38;100867.91;5007115;28;20038;-67
2022/06/06 12:17:17;;;;;;;5.05;2.35;;;;;;;30.10;31.22;100864.38;5004049;28;20065;-66
2022/06/06 12:20:15;;;;;;;4.28;2.17;;;;;;;30.40;30.52;100871.97;5021224;28;20045;-66
2022/06/06 12:23:01;;;;;;;5.90;2.08;;;;;;;31.13;34.07;100862.06;5024939;28;20127;-66
2022/06/06 12:26:15;;;;;;;4.68;2.40;;;;;;;31.36;30.37;100853.47;5020695;28;20052;-66
2022/06/06 12:29:16;;;;;;;2.63;1.80;;;;;;;31.08;29.78;100852.91;5022386;28;20049;-66
2022/06/06 12:31:58;;;;;;;3.78;2.33;;;;;;;30.59;28.37;100864.09;5024152;28;20071;-66
2022/06/06 12:34:31;;;;;;;5.13;2.38;;;;;;;30.60;29.68;100841.44;5012749;28;20046;-66
2022/06/06 12:37:02;;;;;;;4.70;1.85;;;;;;;29.56;30.05;100848.94;5023250;28;20061;-66
2022/06/06 12:39:44;;;;;;;3.88;2.00;;;;;;;29.55;29.30;100849.97;5024893;28;20053;-66
2022/06/06 12:42:12;;;;;;;;;;;;;;;29.05;29.91;100842.16;5026069;28;20060;-66
2022/06/06 12:45:08;;;;;;;6.57;1.92;;;;;;;28.88;30.00;100844.28;5024990;28;19921;-66
2022/06/06 12:48:02;;;;;;;3.42;1.70;;;;;;;28.81;31.84;100840.72;5022254;28;20056;-66
2022/06/06 12:50:46;;;;;;;3.25;1.95;;;;;;;28.39;31.60;100855.00;5020751;28;20123;-66